sensor_id;sensor_type;location;lat;lon;timestamp;P1;durP1;ratioP1;P2;durP2;ratioP2
55647;SDS011;45266;48.756;9.246;2023-03-09T00:00:35;5.47;;;2.03;;
55647;SDS011;45266;48.756;9.246;2023-03-09T00:01:37;3.60;;;1.80;;
55647;SDS011;45266;48.756;9.246;2023-03-09T00:02:39;2.90;;;1.77;;
55647;SDS011;45266;48.756;9.246;2023-03-09T00:03:41;4.90;;;2.00;;
55647;SDS011;45266;48.756;9.246;2023-03-09T00:04:43;2.37;;;1.40;;
55647;SDS011;45266;48.756;9.246;2023-03-09T00:05:52;2.97;;;1.67;;
55647;SDS011;45266;48.756;9.246;2023-03-09T00:06:58;2.67;;;1.80;;
55647;SDS011;45266;48.756;9.246;2023-03-09T00:08:00;4.22;;;1.83;;
55647;SDS011;45266;48.756;9.246;2023-03-09T00:09:02;3.45;;;1.80;;
55647;SDS011;45266;48.756;9.246;2023-03-09T00:10:05;8.00;;;1.90;;
55647;SDS011;45266;48.756;9.246;2023-03-09T00:11:07;5.27;;;2.00;;
55647;SDS011;45266;48.756;9.246;2023-03-09T00:12:09;3.00;;;1.70;;
55647;SDS011;45266;48.756;9.246;2023-03-09T00:13:10;3.10;;;1.80;;
55647;SDS011;45266;48.756;9.246;2023-03-09T00:14:13;7.50;;;2.07;;
55647;SDS011;45266;48.756;9.246;2023-03-09T00:15:15;6.00;;;2.05;;
55647;SDS011;45266;48.756;9.246;2023-03-09T00:16:18;3.10;;;1.75;;
55647;SDS011;45266;48.756;9.246;2023-03-09T00:17:24;3.30;;;1.67;;
55647;SDS011;45266;48.756;9.246;2023-03-09T00:18:26;5.33;;;1.83;;
55647;SDS011;45266;48.756;9.246;2023-03-09T00:19:28;4.57;;;1.60;;
55647;SDS011;45266;48.756;9.246;2023-03-09T00:20:31;6.55;;;2.10;;
55647;SDS011;45266;48.756;9.246;2023-03-09T00:21:33;4.55;;;1.70;;
55647;SDS011;45266;48.756;9.246;2023-03-09T00:22:36;3.95;;;2.13;;
55647;SDS011;45266;48.756;9.246;2023-03-09T00:23:37;3.23;;;1.90;;
55647;SDS011;45266;48.756;9.246;2023-03-09T00:24:39;3.17;;;1.80;;
55647;SDS011;45266;48.756;9.246;2023-03-09T00:25:46;3.53;;;1.90;;
55647;SDS011;45266;48.756;9.246;2023-03-09T00:26:50;4.28;;;1.67;;
55647;SDS011;45266;48.756;9.246;2023-03-09T00:27:53;7.55;;;2.10;;
55647;SDS011;45266;48.756;9.246;2023-03-09T00:28:54;2.87;;;1.67;;
55647;SDS011;45266;48.756;9.246;2023-03-09T00:29:56;8.07;;;1.60;;
55647;SDS011;45266;48.756;9.246;2023-03-09T00:30:59;3.37;;;1.30;;
55647;SDS011;45266;48.756;9.246;2023-03-09T00:32:02;1.67;;;1.50;;
55647;SDS011;45266;48.756;9.246;2023-03-09T00:33:04;3.67;;;1.50;;
55647;SDS011;45266;48.756;9.246;2023-03-09T00:34:06;2.40;;;1.30;;
55647;SDS011;45266;48.756;9.246;2023-03-09T00:35:08;2.80;;;1.37;;
55647;SDS011;45266;48.756;9.246;2023-03-09T00:36:12;3.13;;;1.30;;
55647;SDS011;45266;48.756;9.246;2023-03-09T00:37:15;7.00;;;1.58;;
55647;SDS011;45266;48.756;9.246;2023-03-09T00:38:16;1.77;;;1.13;;
55647;SDS011;45266;48.756;9.246;2023-03-09T00:39:18;2.83;;;1.53;;
55647;SDS011;45266;48.756;9.246;2023-03-09T00:40:20;3.37;;;1.20;;
55647;SDS011;45266;48.756;9.246;2023-03-09T00:41:22;1.83;;;1.10;;
55647;SDS011;45266;48.756;9.246;2023-03-09T00:42:25;2.73;;;1.23;;
55647;SDS011;45266;48.756;9.246;2023-03-09T00:43:27;1.65;;;1.10;;
55647;SDS011;45266;48.756;9.246;2023-03-09T00:44:29;5.43;;;1.20;;
55647;SDS011;45266;48.756;9.246;2023-03-09T00:45:31;3.07;;;1.00;;
55647;SDS011;45266;48.756;9.246;2023-03-09T00:46:33;1.15;;;0.85;;
55647;SDS011;45266;48.756;9.246;2023-03-09T00:47:35;2.60;;;1.00;;
55647;SDS011;45266;48.756;9.246;2023-03-09T00:48:37;4.55;;;1.15;;
55647;SDS011;45266;48.756;9.246;2023-03-09T00:49:39;1.73;;;0.80;;
55647;SDS011;45266;48.756;9.246;2023-03-09T00:50:41;3.07;;;1.07;;
55647;SDS011;45266;48.756;9.246;2023-03-09T00:51:43;1.07;;;0.70;;
55647;SDS011;45266;48.756;9.246;2023-03-09T00:52:45;1.50;;;0.93;;
55647;SDS011;45266;48.756;9.246;2023-03-09T00:53:46;5.67;;;1.30;;
55647;SDS011;45266;48.756;9.246;2023-03-09T00:54:48;2.37;;;1.00;;
55647;SDS011;45266;48.756;9.246;2023-03-09T00:55:54;2.57;;;1.10;;
55647;SDS011;45266;48.756;9.246;2023-03-09T00:56:55;2.67;;;0.82;;
55647;SDS011;45266;48.756;9.246;2023-03-09T00:57:57;2.33;;;1.23;;
55647;SDS011;45266;48.756;9.246;2023-03-09T00:59:00;2.53;;;0.80;;
55647;SDS011;45266;48.756;9.246;2023-03-09T01:00:02;1.43;;;0.70;;
55647;SDS011;45266;48.756;9.246;2023-03-09T01:01:06;0.90;;;0.53;;
55647;SDS011;45266;48.756;9.246;2023-03-09T01:02:09;2.92;;;0.90;;
55647;SDS011;45266;48.756;9.246;2023-03-09T01:03:10;1.15;;;0.68;;
55647;SDS011;45266;48.756;9.246;2023-03-09T01:04:12;1.85;;;0.88;;
55647;SDS011;45266;48.756;9.246;2023-03-09T01:05:14;0.70;;;0.50;;
55647;SDS011;45266;48.756;9.246;2023-03-09T01:06:16;2.42;;;0.68;;
55647;SDS011;45266;48.756;9.246;2023-03-09T01:07:18;0.60;;;0.50;;
55647;SDS011;45266;48.756;9.246;2023-03-09T01:08:20;0.88;;;0.57;;
55647;SDS011;45266;48.756;9.246;2023-03-09T01:09:22;1.67;;;0.50;;
55647;SDS011;45266;48.756;9.246;2023-03-09T01:10:23;0.40;;;0.40;;
55647;SDS011;45266;48.756;9.246;2023-03-09T01:11:25;0.88;;;0.50;;
55647;SDS011;45266;48.756;9.246;2023-03-09T01:12:27;2.17;;;0.60;;
55647;SDS011;45266;48.756;9.246;2023-03-09T01:13:29;0.40;;;0.40;;
55647;SDS011;45266;48.756;9.246;2023-03-09T01:14:31;0.77;;;0.45;;
55647;SDS011;45266;48.756;9.246;2023-03-09T01:15:33;1.33;;;0.40;;
55647;SDS011;45266;48.756;9.246;2023-03-09T01:16:35;0.67;;;0.40;;
55647;SDS011;45266;48.756;9.246;2023-03-09T01:17:36;0.50;;;0.30;;
55647;SDS011;45266;48.756;9.246;2023-03-09T01:18:38;1.15;;;0.47;;
55647;SDS011;45266;48.756;9.246;2023-03-09T01:19:40;0.65;;;0.60;;
55647;SDS011;45266;48.756;9.246;2023-03-09T01:20:43;0.97;;;0.50;;
55647;SDS011;45266;48.756;9.246;2023-03-09T01:21:46;0.73;;;0.30;;
55647;SDS011;45266;48.756;9.246;2023-03-09T01:22:48;0.63;;;0.57;;
55647;SDS011;45266;48.756;9.246;2023-03-09T01:23:50;0.30;;;0.30;;
55647;SDS011;45266;48.756;9.246;2023-03-09T01:24:52;0.43;;;0.43;;
55647;SDS011;45266;48.756;9.246;2023-03-09T01:25:54;0.50;;;0.40;;
55647;SDS011;45266;48.756;9.246;2023-03-09T01:26:56;0.73;;;0.32;;
55647;SDS011;45266;48.756;9.246;2023-03-09T01:27:58;0.60;;;0.30;;
55647;SDS011;45266;48.756;9.246;2023-03-09T01:29:00;0.50;;;0.20;;
55647;SDS011;45266;48.756;9.246;2023-03-09T01:30:03;2.47;;;0.30;;
55647;SDS011;45266;48.756;9.246;2023-03-09T01:31:09;0.63;;;0.30;;
55647;SDS011;45266;48.756;9.246;2023-03-09T01:32:12;1.30;;;0.30;;
55647;SDS011;45266;48.756;9.246;2023-03-09T01:33:14;0.60;;;0.30;;
55647;SDS011;45266;48.756;9.246;2023-03-09T01:34:16;0.20;;;0.20;;
55647;SDS011;45266;48.756;9.246;2023-03-09T01:35:18;0.47;;;0.40;;
55647;SDS011;45266;48.756;9.246;2023-03-09T01:36:20;0.30;;;0.30;;
55647;SDS011;45266;48.756;9.246;2023-03-09T01:37:21;0.40;;;0.30;;
55647;SDS011;45266;48.756;9.246;2023-03-09T01:38:23;2.58;;;0.40;;
55647;SDS011;45266;48.756;9.246;2023-03-09T01:39:25;1.23;;;0.38;;
55647;SDS011;45266;48.756;9.246;2023-03-09T01:40:27;0.30;;;0.30;;
55647;SDS011;45266;48.756;9.246;2023-03-09T01:41:29;0.57;;;0.30;;
55647;SDS011;45266;48.756;9.246;2023-03-09T01:42:31;0.85;;;0.30;;
55647;SDS011;45266;48.756;9.246;2023-03-09T01:44:40;0.40;;;0.30;;
55647;SDS011;45266;48.756;9.246;2023-03-09T01:46:54;0.20;;;0.20;;
55647;SDS011;45266;48.756;9.246;2023-03-09T01:47:58;3.00;;;0.30;;
55647;SDS011;45266;48.756;9.246;2023-03-09T01:49:11;0.63;;;0.30;;
55647;SDS011;45266;48.756;9.246;2023-03-09T01:50:27;1.40;;;0.40;;
55647;SDS011;45266;48.756;9.246;2023-03-09T01:51:39;1.47;;;0.50;;
55647;SDS011;45266;48.756;9.246;2023-03-09T01:53:04;2.13;;;0.50;;
55647;SDS011;45266;48.756;9.246;2023-03-09T01:54:11;0.82;;;0.40;;
55647;SDS011;45266;48.756;9.246;2023-03-09T01:55:19;1.73;;;0.40;;
55647;SDS011;45266;48.756;9.246;2023-03-09T01:56:31;0.47;;;0.40;;
55647;SDS011;45266;48.756;9.246;2023-03-09T01:58:43;0.57;;;0.38;;
55647;SDS011;45266;48.756;9.246;2023-03-09T01:59:49;0.20;;;0.20;;
55647;SDS011;45266;48.756;9.246;2023-03-09T02:00:54;0.40;;;0.40;;
55647;SDS011;45266;48.756;9.246;2023-03-09T02:01:56;1.02;;;0.40;;
55647;SDS011;45266;48.756;9.246;2023-03-09T02:03:04;0.90;;;0.37;;
55647;SDS011;45266;48.756;9.246;2023-03-09T02:04:17;0.53;;;0.40;;
55647;SDS011;45266;48.756;9.246;2023-03-09T02:05:49;0.40;;;0.40;;
55647;SDS011;45266;48.756;9.246;2023-03-09T02:07:05;0.85;;;0.60;;
55647;SDS011;45266;48.756;9.246;2023-03-09T02:08:07;0.50;;;0.20;;
55647;SDS011;45266;48.756;9.246;2023-03-09T02:09:27;0.85;;;0.70;;
55647;SDS011;45266;48.756;9.246;2023-03-09T02:10:51;0.73;;;0.30;;
55647;SDS011;45266;48.756;9.246;2023-03-09T02:11:57;1.67;;;0.40;;
55647;SDS011;45266;48.756;9.246;2023-03-09T02:13:01;0.20;;;0.20;;
55647;SDS011;45266;48.756;9.246;2023-03-09T02:14:08;0.23;;;0.20;;
55647;SDS011;45266;48.756;9.246;2023-03-09T02:15:10;0.30;;;0.30;;
55647;SDS011;45266;48.756;9.246;2023-03-09T02:16:12;0.53;;;0.23;;
55647;SDS011;45266;48.756;9.246;2023-03-09T02:17:15;0.50;;;0.40;;
55647;SDS011;45266;48.756;9.246;2023-03-09T02:18:18;0.60;;;0.30;;
55647;SDS011;45266;48.756;9.246;2023-03-09T02:19:36;1.17;;;0.50;;
55647;SDS011;45266;48.756;9.246;2023-03-09T02:21:25;1.63;;;0.30;;
55647;SDS011;45266;48.756;9.246;2023-03-09T02:23:08;0.20;;;0.20;;
55647;SDS011;45266;48.756;9.246;2023-03-09T02:27:36;0.63;;;0.37;;
55647;SDS011;45266;48.756;9.246;2023-03-09T02:28:38;1.30;;;0.50;;
55647;SDS011;45266;48.756;9.246;2023-03-09T02:29:40;0.33;;;0.30;;
55647;SDS011;45266;48.756;9.246;2023-03-09T02:30:42;0.93;;;0.20;;
55647;SDS011;45266;48.756;9.246;2023-03-09T02:31:48;1.27;;;0.30;;
55647;SDS011;45266;48.756;9.246;2023-03-09T02:32:50;0.40;;;0.30;;
55647;SDS011;45266;48.756;9.246;2023-03-09T02:33:52;0.70;;;0.40;;
55647;SDS011;45266;48.756;9.246;2023-03-09T02:34:53;0.20;;;0.20;;
55647;SDS011;45266;48.756;9.246;2023-03-09T02:35:57;0.47;;;0.30;;
55647;SDS011;45266;48.756;9.246;2023-03-09T02:37:00;0.40;;;0.40;;
55647;SDS011;45266;48.756;9.246;2023-03-09T02:38:02;0.50;;;0.50;;
55647;SDS011;45266;48.756;9.246;2023-03-09T02:39:06;0.73;;;0.30;;
55647;SDS011;45266;48.756;9.246;2023-03-09T02:40:21;0.57;;;0.40;;
55647;SDS011;45266;48.756;9.246;2023-03-09T02:41:29;0.30;;;0.30;;
55647;SDS011;45266;48.756;9.246;2023-03-09T02:42:31;0.57;;;0.40;;
55647;SDS011;45266;48.756;9.246;2023-03-09T02:43:36;0.60;;;0.33;;
55647;SDS011;45266;48.756;9.246;2023-03-09T02:44:45;1.10;;;0.40;;
55647;SDS011;45266;48.756;9.246;2023-03-09T02:45:48;0.90;;;0.60;;
55647;SDS011;45266;48.756;9.246;2023-03-09T02:46:51;2.70;;;0.50;;
55647;SDS011;45266;48.756;9.246;2023-03-09T02:47:53;0.77;;;0.40;;
55647;SDS011;45266;48.756;9.246;2023-03-09T02:48:56;0.40;;;0.30;;
55647;SDS011;45266;48.756;9.246;2023-03-09T02:49:58;1.17;;;0.20;;
55647;SDS011;45266;48.756;9.246;2023-03-09T02:51:00;0.23;;;0.23;;
55647;SDS011;45266;48.756;9.246;2023-03-09T02:52:02;0.97;;;0.40;;
55647;SDS011;45266;48.756;9.246;2023-03-09T02:53:04;1.70;;;0.33;;
55647;SDS011;45266;48.756;9.246;2023-03-09T02:54:06;0.83;;;0.33;;
55647;SDS011;45266;48.756;9.246;2023-03-09T02:55:08;0.47;;;0.37;;
55647;SDS011;45266;48.756;9.246;2023-03-09T02:56:10;0.30;;;0.30;;
55647;SDS011;45266;48.756;9.246;2023-03-09T02:57:12;0.40;;;0.40;;
55647;SDS011;45266;48.756;9.246;2023-03-09T02:58:14;0.90;;;0.33;;
55647;SDS011;45266;48.756;9.246;2023-03-09T02:59:15;1.57;;;0.40;;
55647;SDS011;45266;48.756;9.246;2023-03-09T03:00:17;1.27;;;0.40;;
55647;SDS011;45266;48.756;9.246;2023-03-09T03:01:22;0.30;;;0.30;;
55647;SDS011;45266;48.756;9.246;2023-03-09T03:02:24;0.23;;;0.23;;
55647;SDS011;45266;48.756;9.246;2023-03-09T03:03:26;0.37;;;0.27;;
55647;SDS011;45266;48.756;9.246;2023-03-09T03:04:29;1.47;;;0.40;;
55647;SDS011;45266;48.756;9.246;2023-03-09T03:05:31;0.40;;;0.33;;
55647;SDS011;45266;48.756;9.246;2023-03-09T03:06:33;1.17;;;0.30;;
55647;SDS011;45266;48.756;9.246;2023-03-09T03:07:35;0.50;;;0.43;;
55647;SDS011;45266;48.756;9.246;2023-03-09T03:08:36;0.30;;;0.30;;
55647;SDS011;45266;48.756;9.246;2023-03-09T03:09:38;0.67;;;0.50;;
55647;SDS011;45266;48.756;9.246;2023-03-09T03:10:40;0.80;;;0.53;;
55647;SDS011;45266;48.756;9.246;2023-03-09T03:11:42;0.50;;;0.30;;
55647;SDS011;45266;48.756;9.246;2023-03-09T03:12:44;0.43;;;0.43;;
55647;SDS011;45266;48.756;9.246;2023-03-09T03:13:46;0.80;;;0.37;;
55647;SDS011;45266;48.756;9.246;2023-03-09T03:14:48;0.38;;;0.38;;
55647;SDS011;45266;48.756;9.246;2023-03-09T03:15:50;2.00;;;0.40;;
55647;SDS011;45266;48.756;9.246;2023-03-09T03:16:58;0.87;;;0.40;;
55647;SDS011;45266;48.756;9.246;2023-03-09T03:18:00;1.27;;;0.57;;
55647;SDS011;45266;48.756;9.246;2023-03-09T03:19:02;0.93;;;0.40;;
55647;SDS011;45266;48.756;9.246;2023-03-09T03:20:04;0.40;;;0.30;;
55647;SDS011;45266;48.756;9.246;2023-03-09T03:21:12;0.97;;;0.60;;
55647;SDS011;45266;48.756;9.246;2023-03-09T03:22:14;1.80;;;0.50;;
55647;SDS011;45266;48.756;9.246;2023-03-09T03:23:16;1.73;;;0.60;;
55647;SDS011;45266;48.756;9.246;2023-03-09T03:24:18;0.53;;;0.30;;
55647;SDS011;45266;48.756;9.246;2023-03-09T03:25:19;0.50;;;0.40;;
55647;SDS011;45266;48.756;9.246;2023-03-09T03:26:22;2.00;;;0.53;;
55647;SDS011;45266;48.756;9.246;2023-03-09T03:27:23;0.80;;;0.40;;
55647;SDS011;45266;48.756;9.246;2023-03-09T03:28:25;1.63;;;0.57;;
55647;SDS011;45266;48.756;9.246;2023-03-09T03:29:27;1.00;;;0.63;;
55647;SDS011;45266;48.756;9.246;2023-03-09T03:30:29;0.70;;;0.40;;
55647;SDS011;45266;48.756;9.246;2023-03-09T03:31:31;0.90;;;0.67;;
55647;SDS011;45266;48.756;9.246;2023-03-09T03:32:33;1.13;;;0.60;;
55647;SDS011;45266;48.756;9.246;2023-03-09T03:33:34;0.57;;;0.50;;
55647;SDS011;45266;48.756;9.246;2023-03-09T03:34:36;0.50;;;0.50;;
55647;SDS011;45266;48.756;9.246;2023-03-09T03:35:38;1.43;;;0.40;;
55647;SDS011;45266;48.756;9.246;2023-03-09T03:36:40;1.53;;;0.67;;
55647;SDS011;45266;48.756;9.246;2023-03-09T03:37:41;0.40;;;0.40;;
55647;SDS011;45266;48.756;9.246;2023-03-09T03:38:43;1.10;;;0.47;;
55647;SDS011;45266;48.756;9.246;2023-03-09T03:39:45;0.57;;;0.40;;
55647;SDS011;45266;48.756;9.246;2023-03-09T03:40:47;0.50;;;0.40;;
55647;SDS011;45266;48.756;9.246;2023-03-09T03:41:49;1.13;;;0.60;;
55647;SDS011;45266;48.756;9.246;2023-03-09T03:42:51;0.87;;;0.50;;
55647;SDS011;45266;48.756;9.246;2023-03-09T03:43:52;0.57;;;0.37;;
55647;SDS011;45266;48.756;9.246;2023-03-09T03:44:54;2.60;;;0.50;;
55647;SDS011;45266;48.756;9.246;2023-03-09T03:45:56;0.30;;;0.30;;
55647;SDS011;45266;48.756;9.246;2023-03-09T03:46:57;0.55;;;0.40;;
55647;SDS011;45266;48.756;9.246;2023-03-09T03:47:59;1.13;;;0.30;;
55647;SDS011;45266;48.756;9.246;2023-03-09T03:49:01;0.20;;;0.20;;
55647;SDS011;45266;48.756;9.246;2023-03-09T03:50:03;0.60;;;0.30;;
55647;SDS011;45266;48.756;9.246;2023-03-09T03:51:06;0.23;;;0.20;;
55647;SDS011;45266;48.756;9.246;2023-03-09T03:52:08;0.30;;;0.30;;
55647;SDS011;45266;48.756;9.246;2023-03-09T03:53:10;1.03;;;0.30;;
55647;SDS011;45266;48.756;9.246;2023-03-09T03:54:12;0.23;;;0.23;;
55647;SDS011;45266;48.756;9.246;2023-03-09T03:55:19;0.30;;;0.30;;
55647;SDS011;45266;48.756;9.246;2023-03-09T03:56:21;0.53;;;0.30;;
55647;SDS011;45266;48.756;9.246;2023-03-09T03:57:23;2.00;;;0.40;;
55647;SDS011;45266;48.756;9.246;2023-03-09T03:58:25;0.63;;;0.40;;
55647;SDS011;45266;48.756;9.246;2023-03-09T03:59:27;0.93;;;0.40;;
55647;SDS011;45266;48.756;9.246;2023-03-09T04:00:28;0.23;;;0.23;;
55647;SDS011;45266;48.756;9.246;2023-03-09T04:01:30;1.20;;;0.40;;
55647;SDS011;45266;48.756;9.246;2023-03-09T04:02:32;0.50;;;0.30;;
55647;SDS011;45266;48.756;9.246;2023-03-09T04:03:34;0.40;;;0.30;;
55647;SDS011;45266;48.756;9.246;2023-03-09T04:04:36;0.57;;;0.33;;
55647;SDS011;45266;48.756;9.246;2023-03-09T04:05:37;1.03;;;0.50;;
55647;SDS011;45266;48.756;9.246;2023-03-09T04:06:39;0.50;;;0.50;;
55647;SDS011;45266;48.756;9.246;2023-03-09T04:07:41;1.50;;;0.40;;
55647;SDS011;45266;48.756;9.246;2023-03-09T04:08:43;1.23;;;0.45;;
55647;SDS011;45266;48.756;9.246;2023-03-09T04:09:45;0.57;;;0.40;;
55647;SDS011;45266;48.756;9.246;2023-03-09T04:10:47;3.77;;;0.70;;
55647;SDS011;45266;48.756;9.246;2023-03-09T04:11:49;1.70;;;0.67;;
55647;SDS011;45266;48.756;9.246;2023-03-09T04:12:51;1.80;;;0.60;;
55647;SDS011;45266;48.756;9.246;2023-03-09T04:13:53;14.20;;;9.67;;
55647;SDS011;45266;48.756;9.246;2023-03-09T04:14:55;3.87;;;2.00;;
55647;SDS011;45266;48.756;9.246;2023-03-09T04:15:57;2.43;;;1.00;;
55647;SDS011;45266;48.756;9.246;2023-03-09T04:16:58;2.17;;;0.73;;
55647;SDS011;45266;48.756;9.246;2023-03-09T04:18:00;1.95;;;0.77;;
55647;SDS011;45266;48.756;9.246;2023-03-09T04:19:02;1.00;;;0.60;;
55647;SDS011;45266;48.756;9.246;2023-03-09T04:20:04;4.40;;;0.90;;
55647;SDS011;45266;48.756;9.246;2023-03-09T04:21:06;1.93;;;0.60;;
55647;SDS011;45266;48.756;9.246;2023-03-09T04:22:08;3.43;;;0.77;;
55647;SDS011;45266;48.756;9.246;2023-03-09T04:23:11;3.27;;;0.90;;
55647;SDS011;45266;48.756;9.246;2023-03-09T04:24:13;2.50;;;0.73;;
55647;SDS011;45266;48.756;9.246;2023-03-09T04:25:14;3.87;;;0.80;;
55647;SDS011;45266;48.756;9.246;2023-03-09T04:26:16;2.80;;;0.90;;
55647;SDS011;45266;48.756;9.246;2023-03-09T04:27:20;2.03;;;0.80;;
55647;SDS011;45266;48.756;9.246;2023-03-09T04:28:22;3.05;;;0.95;;
55647;SDS011;45266;48.756;9.246;2023-03-09T04:29:25;2.93;;;0.80;;
55647;SDS011;45266;48.756;9.246;2023-03-09T04:30:28;6.13;;;1.00;;
55647;SDS011;45266;48.756;9.246;2023-03-09T04:31:30;1.83;;;0.70;;
55647;SDS011;45266;48.756;9.246;2023-03-09T04:32:31;4.13;;;1.00;;
55647;SDS011;45266;48.756;9.246;2023-03-09T04:33:33;3.92;;;0.90;;
55647;SDS011;45266;48.756;9.246;2023-03-09T04:34:35;5.38;;;1.27;;
55647;SDS011;45266;48.756;9.246;2023-03-09T04:35:37;5.33;;;1.00;;
55647;SDS011;45266;48.756;9.246;2023-03-09T04:36:39;3.40;;;0.90;;
55647;SDS011;45266;48.756;9.246;2023-03-09T04:37:41;2.17;;;0.70;;
55647;SDS011;45266;48.756;9.246;2023-03-09T04:38:44;5.30;;;1.73;;
55647;SDS011;45266;48.756;9.246;2023-03-09T04:39:46;4.03;;;1.10;;
55647;SDS011;45266;48.756;9.246;2023-03-09T04:40:48;3.57;;;1.17;;
55647;SDS011;45266;48.756;9.246;2023-03-09T04:41:49;8.93;;;1.40;;
55647;SDS011;45266;48.756;9.246;2023-03-09T04:42:51;5.77;;;1.30;;
55647;SDS011;45266;48.756;9.246;2023-03-09T04:43:53;3.67;;;1.20;;
55647;SDS011;45266;48.756;9.246;2023-03-09T04:44:55;3.83;;;1.50;;
55647;SDS011;45266;48.756;9.246;2023-03-09T04:45:56;6.63;;;1.60;;
55647;SDS011;45266;48.756;9.246;2023-03-09T04:46:58;4.73;;;1.40;;
55647;SDS011;45266;48.756;9.246;2023-03-09T04:48:00;9.87;;;1.80;;
55647;SDS011;45266;48.756;9.246;2023-03-09T04:49:02;7.37;;;1.70;;
55647;SDS011;45266;48.756;9.246;2023-03-09T04:50:04;4.27;;;1.50;;
55647;SDS011;45266;48.756;9.246;2023-03-09T04:51:06;7.53;;;1.73;;
55647;SDS011;45266;48.756;9.246;2023-03-09T04:52:08;4.73;;;1.30;;
55647;SDS011;45266;48.756;9.246;2023-03-09T04:53:10;6.80;;;1.33;;
55647;SDS011;45266;48.756;9.246;2023-03-09T04:54:12;4.47;;;1.57;;
55647;SDS011;45266;48.756;9.246;2023-03-09T04:55:14;5.37;;;1.60;;
55647;SDS011;45266;48.756;9.246;2023-03-09T04:56:15;7.10;;;1.90;;
55647;SDS011;45266;48.756;9.246;2023-03-09T04:57:17;4.67;;;1.40;;
55647;SDS011;45266;48.756;9.246;2023-03-09T04:58:19;4.20;;;1.55;;
55647;SDS011;45266;48.756;9.246;2023-03-09T04:59:21;4.67;;;1.43;;
55647;SDS011;45266;48.756;9.246;2023-03-09T05:00:23;6.87;;;1.83;;
55647;SDS011;45266;48.756;9.246;2023-03-09T05:01:25;9.07;;;1.77;;
55647;SDS011;45266;48.756;9.246;2023-03-09T05:02:27;6.50;;;1.80;;
55647;SDS011;45266;48.756;9.246;2023-03-09T05:03:30;6.03;;;2.03;;
55647;SDS011;45266;48.756;9.246;2023-03-09T05:04:31;4.67;;;1.80;;
55647;SDS011;45266;48.756;9.246;2023-03-09T05:05:34;3.80;;;1.33;;
55647;SDS011;45266;48.756;9.246;2023-03-09T05:06:35;8.37;;;1.80;;
55647;SDS011;45266;48.756;9.246;2023-03-09T05:07:37;5.17;;;1.67;;
55647;SDS011;45266;48.756;9.246;2023-03-09T05:08:39;6.93;;;1.83;;
55647;SDS011;45266;48.756;9.246;2023-03-09T05:09:41;8.87;;;1.97;;
55647;SDS011;45266;48.756;9.246;2023-03-09T05:10:43;5.13;;;1.90;;
55647;SDS011;45266;48.756;9.246;2023-03-09T05:11:44;9.63;;;2.10;;
55647;SDS011;45266;48.756;9.246;2023-03-09T05:12:47;5.10;;;1.85;;
55647;SDS011;45266;48.756;9.246;2023-03-09T05:13:49;6.17;;;1.77;;
55647;SDS011;45266;48.756;9.246;2023-03-09T05:14:51;4.87;;;1.67;;
55647;SDS011;45266;48.756;9.246;2023-03-09T05:15:52;5.80;;;1.77;;
55647;SDS011;45266;48.756;9.246;2023-03-09T05:16:54;5.67;;;1.70;;
55647;SDS011;45266;48.756;9.246;2023-03-09T05:17:56;5.67;;;1.90;;
55647;SDS011;45266;48.756;9.246;2023-03-09T05:18:59;5.33;;;1.50;;
55647;SDS011;45266;48.756;9.246;2023-03-09T05:20:01;5.80;;;1.80;;
55647;SDS011;45266;48.756;9.246;2023-03-09T05:21:06;3.77;;;1.70;;
55647;SDS011;45266;48.756;9.246;2023-03-09T05:22:08;5.90;;;1.53;;
55647;SDS011;45266;48.756;9.246;2023-03-09T05:23:10;7.50;;;1.97;;
55647;SDS011;45266;48.756;9.246;2023-03-09T05:24:12;9.80;;;1.50;;
55647;SDS011;45266;48.756;9.246;2023-03-09T05:25:14;5.47;;;1.70;;
55647;SDS011;45266;48.756;9.246;2023-03-09T05:26:16;4.93;;;2.17;;
55647;SDS011;45266;48.756;9.246;2023-03-09T05:27:18;5.37;;;1.60;;
55647;SDS011;45266;48.756;9.246;2023-03-09T05:28:20;6.07;;;1.50;;
55647;SDS011;45266;48.756;9.246;2023-03-09T05:29:21;4.80;;;1.40;;
55647;SDS011;45266;48.756;9.246;2023-03-09T05:30:23;6.00;;;1.33;;
55647;SDS011;45266;48.756;9.246;2023-03-09T05:31:25;6.67;;;1.53;;
55647;SDS011;45266;48.756;9.246;2023-03-09T05:32:27;3.53;;;1.40;;
55647;SDS011;45266;48.756;9.246;2023-03-09T05:33:29;5.00;;;1.73;;
55647;SDS011;45266;48.756;9.246;2023-03-09T05:34:31;5.23;;;1.50;;
55647;SDS011;45266;48.756;9.246;2023-03-09T05:35:32;5.17;;;1.90;;
55647;SDS011;45266;48.756;9.246;2023-03-09T05:36:34;4.73;;;1.90;;
55647;SDS011;45266;48.756;9.246;2023-03-09T05:37:37;2.77;;;1.47;;
55647;SDS011;45266;48.756;9.246;2023-03-09T05:38:39;5.53;;;2.40;;
55647;SDS011;45266;48.756;9.246;2023-03-09T05:39:40;5.07;;;1.60;;
55647;SDS011;45266;48.756;9.246;2023-03-09T05:40:42;3.77;;;1.67;;
55647;SDS011;45266;48.756;9.246;2023-03-09T05:41:44;5.63;;;1.83;;
55647;SDS011;45266;48.756;9.246;2023-03-09T05:42:50;3.67;;;1.23;;
55647;SDS011;45266;48.756;9.246;2023-03-09T05:43:52;8.87;;;2.03;;
55647;SDS011;45266;48.756;9.246;2023-03-09T05:44:54;6.00;;;1.57;;
55647;SDS011;45266;48.756;9.246;2023-03-09T05:45:56;4.50;;;1.70;;
55647;SDS011;45266;48.756;9.246;2023-03-09T05:46:58;3.03;;;1.35;;
55647;SDS011;45266;48.756;9.246;2023-03-09T05:48:00;6.07;;;1.80;;
55647;SDS011;45266;48.756;9.246;2023-03-09T05:49:02;4.17;;;1.63;;
55647;SDS011;45266;48.756;9.246;2023-03-09T05:50:04;5.43;;;2.17;;
55647;SDS011;45266;48.756;9.246;2023-03-09T05:51:06;5.53;;;1.57;;
55647;SDS011;45266;48.756;9.246;2023-03-09T05:52:11;5.17;;;1.50;;
55647;SDS011;45266;48.756;9.246;2023-03-09T05:53:13;4.93;;;1.60;;
55647;SDS011;45266;48.756;9.246;2023-03-09T05:54:14;3.77;;;1.40;;
55647;SDS011;45266;48.756;9.246;2023-03-09T05:55:18;7.03;;;1.67;;
55647;SDS011;45266;48.756;9.246;2023-03-09T05:56:19;7.17;;;1.77;;
55647;SDS011;45266;48.756;9.246;2023-03-09T05:57:21;6.27;;;2.07;;
55647;SDS011;45266;48.756;9.246;2023-03-09T05:58:23;5.53;;;1.60;;
55647;SDS011;45266;48.756;9.246;2023-03-09T05:59:25;4.73;;;1.83;;
55647;SDS011;45266;48.756;9.246;2023-03-09T06:00:27;6.63;;;1.87;;
55647;SDS011;45266;48.756;9.246;2023-03-09T06:01:29;5.73;;;1.83;;
55647;SDS011;45266;48.756;9.246;2023-03-09T06:02:32;6.80;;;1.77;;
55647;SDS011;45266;48.756;9.246;2023-03-09T06:03:34;11.53;;;1.77;;
55647;SDS011;45266;48.756;9.246;2023-03-09T06:04:36;6.47;;;1.80;;
55647;SDS011;45266;48.756;9.246;2023-03-09T06:05:37;5.13;;;1.90;;
55647;SDS011;45266;48.756;9.246;2023-03-09T06:06:39;7.23;;;4.40;;
55647;SDS011;45266;48.756;9.246;2023-03-09T06:07:41;11.20;;;2.73;;
55647;SDS011;45266;48.756;9.246;2023-03-09T06:08:43;4.93;;;2.00;;
55647;SDS011;45266;48.756;9.246;2023-03-09T06:09:45;7.30;;;2.20;;
55647;SDS011;45266;48.756;9.246;2023-03-09T06:10:48;6.23;;;1.90;;
55647;SDS011;45266;48.756;9.246;2023-03-09T06:11:49;4.03;;;2.20;;
55647;SDS011;45266;48.756;9.246;2023-03-09T06:12:51;6.27;;;1.90;;
55647;SDS011;45266;48.756;9.246;2023-03-09T06:13:54;4.70;;;1.77;;
55647;SDS011;45266;48.756;9.246;2023-03-09T06:14:56;5.60;;;1.73;;
55647;SDS011;45266;48.756;9.246;2023-03-09T06:15:58;8.10;;;1.50;;
55647;SDS011;45266;48.756;9.246;2023-03-09T06:17:03;6.70;;;1.90;;
55647;SDS011;45266;48.756;9.246;2023-03-09T06:18:05;8.30;;;2.00;;
55647;SDS011;45266;48.756;9.246;2023-03-09T06:19:07;4.70;;;1.60;;
55647;SDS011;45266;48.756;9.246;2023-03-09T06:20:08;6.03;;;1.67;;
55647;SDS011;45266;48.756;9.246;2023-03-09T06:21:11;7.90;;;2.30;;
55647;SDS011;45266;48.756;9.246;2023-03-09T06:22:13;7.63;;;2.10;;
55647;SDS011;45266;48.756;9.246;2023-03-09T06:23:15;5.43;;;2.00;;
55647;SDS011;45266;48.756;9.246;2023-03-09T06:24:17;8.70;;;2.27;;
55647;SDS011;45266;48.756;9.246;2023-03-09T06:25:19;6.07;;;1.90;;
55647;SDS011;45266;48.756;9.246;2023-03-09T06:26:21;8.87;;;2.20;;
55647;SDS011;45266;48.756;9.246;2023-03-09T06:27:23;7.07;;;2.13;;